createdAt,value
2019-04-20T00:00:09.084Z,12.20
2019-04-20T00:02:37.958Z,12.73
2019-04-20T00:05:09.389Z,19.90
2019-04-20T00:07:40.098Z,13.93
2019-04-20T00:10:15.553Z,12.33
2019-04-20T00:13:01.095Z,12.10
2019-04-20T00:15:15.738Z,17.73
2019-04-20T00:17:54.252Z,14.07
2019-04-20T00:20:24.171Z,14.70
2019-04-20T00:22:59.791Z,14.87
2019-04-20T00:26:04.477Z,14.43
2019-04-20T00:28:45.995Z,13.13
2019-04-20T00:31:17.807Z,12.97
2019-04-20T00:33:42.760Z,12.13
2019-04-20T00:36:05.393Z,12.63
2019-04-20T00:38:45.539Z,12.43
2019-04-20T00:41:12.526Z,12.37
2019-04-20T00:43:42.537Z,10.63
2019-04-20T00:46:23.117Z,10.93
2019-04-20T00:48:54.011Z,10.77
2019-04-20T00:51:35.147Z,11.20
2019-04-20T00:53:55.246Z,10.10
2019-04-20T00:56:24.486Z,10.03
2019-04-20T00:59:08.329Z,10.77
2019-04-20T01:01:47.656Z,11.77
2019-04-20T01:04:20.485Z,13.20
2019-04-20T01:07:06.221Z,13.57
2019-04-20T01:09:43.386Z,10.83
2019-04-20T01:12:22.471Z,12.37
2019-04-20T01:14:55.131Z,8.50
2019-04-20T01:17:20.303Z,11.87
2019-04-20T01:19:54.140Z,9.30
2019-04-20T01:22:27.323Z,14.40
2019-04-20T01:25:09.751Z,13.67
2019-04-20T01:27:51.576Z,11.60
2019-04-20T01:30:17.432Z,9.93
2019-04-20T01:32:55.133Z,11.10
2019-04-20T01:35:31.826Z,10.40
2019-04-20T01:38:07.318Z,13.40
2019-04-20T01:40:19.089Z,18.23
2019-04-20T01:42:51.063Z,15.73
2019-04-20T01:45:27.937Z,12.00
2019-04-20T01:47:57.789Z,15.10
2019-04-20T01:50:30.055Z,13.97
2019-04-20T01:53:11.536Z,12.03
2019-04-20T01:55:53.113Z,14.63
2019-04-20T01:58:52.130Z,14.63
2019-04-20T02:00:55.851Z,14.70
2019-04-20T02:03:38.597Z,14.23
2019-04-20T02:06:16.734Z,13.97
2019-04-20T02:08:46.195Z,17.07
2019-04-20T02:11:24.148Z,15.23
2019-04-20T02:13:56.660Z,17.10
2019-04-20T02:16:31.784Z,13.93
2019-04-20T02:19:15.533Z,19.10
2019-04-20T02:21:55.687Z,16.10
2019-04-20T02:24:13.144Z,18.00
2019-04-20T02:26:45.096Z,15.20
2019-04-20T02:29:39.840Z,14.30
2019-04-20T02:32:23.326Z,14.43
2019-04-20T02:35:07.231Z,14.40
2019-04-20T02:40:45.199Z,16.17
2019-04-20T02:45:40.428Z,19.50
2019-04-20T02:48:13.411Z,21.97
2019-04-20T02:50:59.530Z,15.77
2019-04-20T02:53:30.292Z,18.80
2019-04-20T02:55:58.565Z,18.67
2019-04-20T02:58:23.574Z,22.77
2019-04-20T03:00:57.150Z,19.33
2019-04-20T03:03:14.336Z,17.80
2019-04-20T03:05:45.445Z,20.60
2019-04-20T03:08:22.262Z,14.20
2019-04-20T03:11:11.710Z,16.27
2019-04-20T03:13:36.695Z,15.03
2019-04-20T03:16:08.695Z,17.93
2019-04-20T03:18:39.849Z,17.73
2019-04-20T03:21:21.068Z,15.40
2019-04-20T03:23:50.015Z,15.03
2019-04-20T03:26:21.406Z,16.77
2019-04-20T03:29:02.576Z,18.40
2019-04-20T03:32:28.874Z,13.30
2019-04-20T03:35:00.547Z,16.43
2019-04-20T03:37:17.192Z,22.37
2019-04-20T03:39:40.528Z,15.47
2019-04-20T03:41:58.712Z,19.97
2019-04-20T03:44:32.919Z,12.87
2019-04-20T03:47:08.038Z,10.43
2019-04-20T03:50:01.002Z,13.03
2019-04-20T03:52:32.845Z,9.60
2019-04-20T03:55:07.278Z,15.13
2019-04-20T03:57:49.812Z,16.47
2019-04-20T04:00:26.448Z,15.30
2019-04-20T04:03:16.573Z,13.17
2019-04-20T04:05:37.034Z,14.93
2019-04-20T04:08:03.167Z,16.10
2019-04-20T04:10:34.039Z,15.63
2019-04-20T04:13:14.939Z,17.97
2019-04-20T04:15:55.597Z,16.67
2019-04-20T04:18:29.742Z,18.47
2019-04-20T04:21:01.963Z,16.63
2019-04-20T04:23:44.524Z,16.97
2019-04-20T04:26:17.490Z,14.70
2019-04-20T04:28:53.835Z,13.60
2019-04-20T04:31:35.039Z,15.03
2019-04-20T04:34:17.689Z,12.17
2019-04-20T04:36:40.593Z,13.50
2019-04-20T04:39:15.476Z,14.77
2019-04-20T04:41:58.213Z,13.67
2019-04-20T04:44:18.012Z,17.23
2019-04-20T04:46:44.600Z,14.23
2019-04-20T04:49:16.506Z,18.07
2019-04-20T04:51:53.520Z,17.83
2019-04-20T04:54:28.817Z,14.10
2019-04-20T04:56:54.608Z,17.77
2019-04-20T04:59:29.672Z,13.80
2019-04-20T05:02:03.293Z,14.33
2019-04-20T05:04:58.425Z,15.87
2019-04-20T05:07:24.453Z,11.27
2019-04-20T05:09:44.385Z,14.03
2019-04-20T05:12:20.338Z,13.97
2019-04-20T05:14:58.078Z,16.33
2019-04-20T05:17:39.421Z,17.57
2019-04-20T05:20:13.387Z,9.00
2019-04-20T05:22:51.001Z,13.07
2019-04-20T05:25:36.656Z,16.80
2019-04-20T05:28:20.797Z,9.10
2019-04-20T05:30:52.548Z,11.30
2019-04-20T05:33:31.493Z,12.70
2019-04-20T05:36:15.745Z,7.30
2019-04-20T05:38:46.999Z,8.10
2019-04-20T05:41:20.091Z,10.07
2019-04-20T05:43:53.410Z,6.97
2019-04-20T05:46:35.343Z,8.53
2019-04-20T05:49:13.474Z,21.00
2019-04-20T05:51:39.682Z,8.67
2019-04-20T05:54:13.579Z,14.50
2019-04-20T05:56:51.274Z,13.90
2019-04-20T05:59:23.851Z,16.47
2019-04-20T06:01:58.887Z,12.23
2019-04-20T06:04:41.313Z,13.50
2019-04-20T06:07:08.287Z,14.83
2019-04-20T06:09:40.945Z,9.37
2019-04-20T06:12:31.809Z,8.97
2019-04-20T06:17:52.717Z,9.93
2019-04-20T06:20:33.952Z,9.17
2019-04-20T06:23:15.936Z,8.07
2019-04-20T06:25:52.975Z,7.43
2019-04-20T06:28:12.825Z,15.13
2019-04-20T06:30:50.846Z,11.33
2019-04-20T06:36:38.600Z,8.30
2019-04-20T06:39:17.204Z,12.77
2019-04-20T06:42:05.015Z,9.67
2019-04-20T06:44:24.678Z,5.57
2019-04-20T06:46:59.129Z,7.23
2019-04-20T06:52:00.414Z,7.47
2019-04-20T06:54:39.464Z,5.80
2019-04-20T06:57:22.552Z,10.07
2019-04-20T06:59:47.667Z,11.60
2019-04-20T07:02:22.231Z,5.07
2019-04-20T07:07:26.614Z,7.13
2019-04-20T07:12:27.324Z,6.53
2019-04-20T07:14:55.277Z,6.77
2019-04-20T07:17:49.103Z,7.53
2019-04-20T07:20:15.491Z,6.07
2019-04-20T07:23:14.517Z,4.23
2019-04-20T07:25:38.769Z,4.27
2019-04-20T07:28:05.881Z,7.13
2019-04-20T07:30:41.846Z,5.03
2019-04-20T07:33:20.023Z,5.63
2019-04-20T07:35:49.218Z,7.60
2019-04-20T07:40:50.377Z,5.83
2019-04-20T07:43:25.577Z,4.30
2019-04-20T07:45:55.751Z,6.17
2019-04-20T07:48:26.431Z,5.80
2019-04-20T07:50:55.533Z,4.60
2019-04-20T07:53:29.399Z,6.33
2019-04-20T07:56:12.597Z,7.77
2019-04-20T07:59:31.480Z,6.73
2019-04-20T08:02:19.180Z,5.80
2019-04-20T08:04:55.080Z,4.53
2019-04-20T08:07:17.521Z,7.93
2019-04-20T08:09:57.421Z,3.60
2019-04-20T08:12:58.381Z,4.17
2019-04-20T08:15:34.045Z,6.30
2019-04-20T08:17:56.394Z,4.10
2019-04-20T08:20:29.926Z,9.03
2019-04-20T08:23:00.120Z,6.47
2019-04-20T08:25:23.773Z,6.47
2019-04-20T08:28:06.479Z,7.80
2019-04-20T08:31:00.912Z,9.93
2019-04-20T08:33:45.178Z,9.00
2019-04-20T08:36:18.156Z,4.47
2019-04-20T08:39:12.717Z,7.27
2019-04-20T08:41:48.622Z,5.83
2019-04-20T08:44:42.723Z,5.47
2019-04-20T08:47:05.164Z,7.53
2019-04-20T08:49:29.666Z,4.70
2019-04-20T08:54:26.409Z,4.90
2019-04-20T08:56:51.721Z,4.27
2019-04-20T08:59:19.197Z,8.50
2019-04-20T09:01:51.077Z,6.10
2019-04-20T09:04:36.045Z,6.77
2019-04-20T09:07:05.596Z,7.53
2019-04-20T09:09:52.549Z,6.17
2019-04-20T09:12:26.757Z,7.93
2019-04-20T09:14:44.532Z,6.87
2019-04-20T09:17:27.264Z,3.77
2019-04-20T09:20:01.486Z,9.53
2019-04-20T09:22:49.457Z,9.23
2019-04-20T09:25:57.718Z,7.03
2019-04-20T09:28:11.772Z,5.97
2019-04-20T09:30:51.950Z,4.70
2019-04-20T09:33:47.037Z,6.47
2019-04-20T09:36:17.875Z,6.87
2019-04-20T09:39:08.573Z,4.50
2019-04-20T09:41:58.114Z,7.13
2019-04-20T09:44:04.641Z,5.97
2019-04-20T09:46:44.183Z,7.17
2019-04-20T09:49:20.136Z,7.03
2019-04-20T09:52:00.187Z,5.10
2019-04-20T09:54:35.862Z,7.20
2019-04-20T09:57:09.163Z,8.50
2019-04-20T09:59:52.868Z,7.27
2019-04-20T10:02:13.715Z,9.20
2019-04-20T10:04:39.925Z,4.90
2019-04-20T10:07:14.510Z,5.43
2019-04-20T10:09:46.912Z,4.30
2019-04-20T10:12:15.734Z,6.77
2019-04-20T10:14:46.849Z,6.83
2019-04-20T10:17:18.118Z,6.80
2019-04-20T10:19:51.380Z,6.07
2019-04-20T10:22:29.017Z,5.60
2019-04-20T10:25:02.644Z,8.93
2019-04-20T10:27:41.923Z,6.23
2019-04-20T10:30:14.603Z,9.27
2019-04-20T10:32:50.912Z,5.03
2019-04-20T10:35:23.876Z,4.47
2019-04-20T10:38:03.346Z,4.90
2019-04-20T10:40:48.683Z,7.10
2019-04-20T10:43:10.221Z,10.03
2019-04-20T10:45:41.423Z,7.73
2019-04-20T10:48:13.145Z,4.70
2019-04-20T10:50:47.204Z,9.17
2019-04-20T10:53:19.696Z,6.90
2019-04-20T10:55:55.704Z,8.63
2019-04-20T10:58:27.563Z,6.07
2019-04-20T11:01:05.783Z,6.83
2019-04-20T11:03:44.831Z,6.63
2019-04-20T11:06:34.443Z,6.33
2019-04-20T11:09:11.873Z,10.93
2019-04-20T11:11:48.462Z,4.87
2019-04-20T11:14:26.373Z,7.47
2019-04-20T11:16:54.141Z,7.20
2019-04-20T11:19:25.366Z,4.37
2019-04-20T11:22:00.377Z,7.77
2019-04-20T11:24:38.990Z,5.40
2019-04-20T11:27:12.486Z,6.30
2019-04-20T11:29:44.487Z,3.87
2019-04-20T11:32:17.908Z,5.33
2019-04-20T11:34:51.234Z,5.90
2019-04-20T11:37:22.148Z,9.70
2019-04-20T11:39:55.235Z,7.63
2019-04-20T11:42:25.945Z,3.77
2019-04-20T11:44:58.722Z,7.70
2019-04-20T11:47:29.676Z,5.40
2019-04-20T11:50:01.823Z,5.93
2019-04-20T11:52:39.909Z,10.60
2019-04-20T11:55:10.517Z,5.13
2019-04-20T11:57:43.027Z,4.27
2019-04-20T12:00:29.888Z,6.53
2019-04-20T12:03:24.795Z,6.63
2019-04-20T12:05:53.812Z,4.33
2019-04-20T12:08:23.375Z,11.73
2019-04-20T12:10:59.513Z,6.17
2019-04-20T12:13:31.030Z,6.60
2019-04-20T12:16:05.581Z,6.33
2019-04-20T12:18:38.256Z,7.97
2019-04-20T12:21:14.791Z,6.83
2019-04-20T12:23:46.406Z,9.73
2019-04-20T12:26:18.805Z,4.37
2019-04-20T12:28:52.212Z,4.33
2019-04-20T12:31:27.636Z,5.43
2019-04-20T12:33:58.649Z,4.83
2019-04-20T12:36:30.234Z,6.60
2019-04-20T12:39:04.075Z,4.13
2019-04-20T12:41:45.339Z,8.93
2019-04-20T12:44:12.231Z,8.07
2019-04-20T12:46:47.814Z,8.97
2019-04-20T12:49:23.479Z,6.43
2019-04-20T12:52:00.237Z,6.17
2019-04-20T12:54:29.270Z,7.37
2019-04-20T12:57:00.505Z,6.83
2019-04-20T12:59:42.255Z,4.43
2019-04-20T13:02:13.847Z,6.10
2019-04-20T13:04:45.781Z,7.00
2019-04-20T13:07:17.660Z,6.63
2019-04-20T13:09:54.802Z,8.70
2019-04-20T13:12:34.258Z,3.67
2019-04-20T13:15:26.591Z,3.50
2019-04-20T13:18:01.395Z,5.17
2019-04-20T13:20:37.108Z,4.83
2019-04-20T13:23:17.219Z,4.40
2019-04-20T13:25:48.861Z,7.93
2019-04-20T13:28:23.170Z,7.90
2019-04-20T13:30:57.844Z,7.00
2019-04-20T13:33:29.544Z,8.03
2019-04-20T13:36:04.062Z,4.73
2019-04-20T13:38:38.189Z,6.07
2019-04-20T13:41:09.396Z,6.03
2019-04-20T13:43:41.612Z,7.40
2019-04-20T13:46:25.034Z,6.00
2019-04-20T13:48:58.853Z,4.77
2019-04-20T13:51:32.881Z,7.30
2019-04-20T13:54:14.985Z,5.83
2019-04-20T13:56:48.026Z,5.23
2019-04-20T13:59:32.539Z,9.37
2019-04-20T14:02:10.877Z,4.30
2019-04-20T14:04:48.722Z,11.00
2019-04-20T14:07:20.280Z,7.33
2019-04-20T14:09:53.477Z,3.93
2019-04-20T14:12:35.397Z,4.43
2019-04-20T14:15:02.829Z,5.10
2019-04-20T14:17:37.218Z,5.03
2019-04-20T14:20:15.779Z,4.60
2019-04-20T14:22:47.259Z,14.30
2019-04-20T14:25:22.887Z,6.37
2019-04-20T14:28:05.204Z,4.07
2019-04-20T14:30:37.243Z,14.80
2019-04-20T14:33:12.898Z,4.83
2019-04-20T14:35:48.322Z,6.77
2019-04-20T14:38:22.286Z,4.27
2019-04-20T14:41:00.110Z,4.60
2019-04-20T14:43:38.105Z,7.07
2019-04-20T14:46:10.918Z,4.00
2019-04-20T14:48:46.879Z,4.27
2019-04-20T14:51:27.831Z,14.53
2019-04-20T14:54:05.933Z,7.53
2019-04-20T14:56:47.620Z,8.00
2019-04-20T14:59:27.476Z,7.43
2019-04-20T15:02:02.822Z,6.23
2019-04-20T15:04:34.711Z,7.47
2019-04-20T15:07:06.695Z,5.50
2019-04-20T15:09:42.549Z,8.87
2019-04-20T15:12:15.004Z,3.57
2019-04-20T15:14:50.397Z,6.03
2019-04-20T15:17:23.561Z,9.83
2019-04-20T15:19:59.240Z,6.53
2019-04-20T15:22:31.825Z,7.73
2019-04-20T15:25:03.845Z,6.20
2019-04-20T15:27:46.004Z,10.87
2019-04-20T15:30:18.315Z,4.37
2019-04-20T15:32:49.344Z,3.97
2019-04-20T15:35:21.494Z,4.83
2019-04-20T15:37:53.251Z,38.40
2019-04-20T15:40:24.058Z,5.43
2019-04-20T15:43:09.545Z,6.03
2019-04-20T15:45:31.975Z,7.90
2019-04-20T15:48:06.017Z,5.13
2019-04-20T15:50:38.070Z,9.10
2019-04-20T15:53:09.413Z,12.27
2019-04-20T15:55:42.013Z,13.63
2019-04-20T15:58:16.407Z,11.73
2019-04-20T16:00:47.214Z,7.77
2019-04-20T16:03:23.322Z,10.60
2019-04-20T16:05:58.969Z,11.93
2019-04-20T16:08:38.755Z,8.13
2019-04-20T16:11:11.378Z,6.97
2019-04-20T16:13:50.007Z,9.63
2019-04-20T16:16:19.610Z,11.10
2019-04-20T16:18:51.020Z,9.37
2019-04-20T16:21:29.447Z,9.53
2019-04-20T16:24:01.142Z,7.13
2019-04-20T16:26:37.830Z,12.27
2019-04-20T16:29:08.807Z,8.00
2019-04-20T16:31:40.555Z,12.37
2019-04-20T16:34:14.244Z,13.90
2019-04-20T16:36:46.368Z,10.33
2019-04-20T16:39:18.372Z,12.20
2019-04-20T16:41:50.465Z,7.47
2019-04-20T16:44:23.144Z,8.13
2019-04-20T16:46:56.448Z,8.37
2019-04-20T16:49:27.057Z,10.23
2019-04-20T16:52:00.886Z,13.53
2019-04-20T16:54:32.137Z,16.87
2019-04-20T16:57:04.770Z,10.23
2019-04-20T16:59:46.523Z,10.83
2019-04-20T17:02:14.178Z,13.63
2019-04-20T17:04:45.026Z,14.73
2019-04-20T17:07:20.544Z,11.07
2019-04-20T17:09:55.960Z,22.73
2019-04-20T17:12:27.955Z,13.80
2019-04-20T17:15:01.365Z,13.07
2019-04-20T17:17:35.821Z,12.43
2019-04-20T17:20:11.427Z,13.50
2019-04-20T17:22:50.769Z,15.83
2019-04-20T17:25:27.945Z,12.13
2019-04-20T17:28:17.351Z,9.80
2019-04-20T17:30:59.234Z,15.50
2019-04-20T17:33:50.682Z,17.47
2019-04-20T17:36:18.558Z,24.57
2019-04-20T17:38:51.711Z,15.00
2019-04-20T17:41:43.163Z,16.73
2019-04-20T17:44:09.667Z,18.83
2019-04-20T17:46:44.360Z,21.57
2019-04-20T17:49:14.467Z,20.37
2019-04-20T17:51:57.996Z,14.73
2019-04-20T17:54:25.566Z,24.37
2019-04-20T17:57:00.344Z,19.13
2019-04-20T17:59:39.993Z,21.33
2019-04-20T18:02:51.195Z,20.97
2019-04-20T18:05:46.548Z,69.90
2019-04-20T18:08:15.500Z,29.47
2019-04-20T18:10:41.875Z,21.03
2019-04-20T18:13:07.069Z,24.73
2019-04-20T18:15:48.880Z,25.17
2019-04-20T18:18:39.075Z,25.00
2019-04-20T18:21:03.199Z,38.37
2019-04-20T18:23:39.914Z,23.03
2019-04-20T18:26:28.775Z,33.23
2019-04-20T18:29:03.589Z,26.27
2019-04-20T18:31:17.578Z,32.13
2019-04-20T18:33:50.621Z,25.80
2019-04-20T18:36:30.804Z,27.73
2019-04-20T18:39:02.629Z,26.90
2019-04-20T18:41:38.489Z,28.40
2019-04-20T18:44:04.510Z,27.43
2019-04-20T18:47:00.328Z,25.30
2019-04-20T18:49:24.063Z,41.23
2019-04-20T18:51:39.962Z,34.63
2019-04-20T18:54:22.379Z,27.47
2019-04-20T18:56:56.778Z,23.90
2019-04-20T18:59:31.783Z,26.63
2019-04-20T19:02:12.754Z,24.17
2019-04-20T19:04:39.703Z,27.57
2019-04-20T19:07:11.923Z,20.17
2019-04-20T19:09:45.478Z,20.67
2019-04-20T19:12:16.645Z,21.40
2019-04-20T19:15:28.174Z,19.23
2019-04-20T19:17:58.111Z,25.27
2019-04-20T19:20:26.919Z,24.83
2019-04-20T19:22:58.020Z,26.30
2019-04-20T19:25:36.778Z,26.67
2019-04-20T19:28:07.069Z,23.73
2019-04-20T19:30:46.836Z,22.20
2019-04-20T19:33:30.430Z,22.63
2019-04-20T19:35:53.005Z,16.00
2019-04-20T19:38:25.889Z,17.57
2019-04-20T19:41:00.136Z,19.73
2019-04-20T19:43:33.801Z,19.93
2019-04-20T19:46:44.292Z,15.93
2019-04-20T19:48:48.685Z,17.77
2019-04-20T19:51:28.399Z,23.33
2019-04-20T19:53:59.610Z,18.97
2019-04-20T19:56:31.100Z,13.37
2019-04-20T19:59:05.112Z,12.20
2019-04-20T20:01:22.146Z,13.57
2019-04-20T20:04:02.855Z,14.43
2019-04-20T20:06:42.673Z,28.67
2019-04-20T20:09:09.402Z,16.77
2019-04-20T20:11:42.368Z,14.40
2019-04-20T20:14:12.719Z,13.63
2019-04-20T20:17:06.698Z,13.63
2019-04-20T20:19:37.196Z,12.40
2019-04-20T20:22:07.863Z,15.00
2019-04-20T20:24:27.277Z,14.63
2019-04-20T20:27:04.239Z,13.63
2019-04-20T20:29:38.366Z,18.73
2019-04-20T20:32:17.733Z,13.23
2019-04-20T20:34:44.065Z,19.07
2019-04-20T20:37:18.165Z,16.73
2019-04-20T20:39:59.713Z,11.70
2019-04-20T20:42:29.374Z,12.23
2019-04-20T20:45:07.002Z,18.93
2019-04-20T20:48:00.462Z,14.77
2019-04-20T20:50:21.238Z,15.37
2019-04-20T20:52:49.662Z,16.43
2019-04-20T20:55:24.580Z,15.73
2019-04-20T20:57:53.596Z,12.37
2019-04-20T21:00:24.146Z,9.83
2019-04-20T21:02:53.776Z,12.00
2019-04-20T21:05:19.695Z,10.40
2019-04-20T21:07:51.342Z,10.63
2019-04-20T21:10:30.033Z,12.60
2019-04-20T21:12:58.971Z,14.13
2019-04-20T21:15:28.270Z,13.57
2019-04-20T21:18:20.815Z,15.67
2019-04-20T21:20:52.010Z,14.57
2019-04-20T21:23:20.110Z,10.20
2019-04-20T21:25:43.508Z,11.70
2019-04-20T21:28:10.856Z,13.57
2019-04-20T21:30:45.514Z,8.63
2019-04-20T21:33:15.017Z,10.27
2019-04-20T21:35:48.890Z,11.80
2019-04-20T21:38:19.033Z,8.93
2019-04-20T21:41:02.118Z,10.30
2019-04-20T21:43:29.914Z,11.73
2019-04-20T21:46:01.247Z,9.73
2019-04-20T21:48:49.174Z,11.30
2019-04-20T21:51:16.602Z,14.43
2019-04-20T21:53:35.876Z,14.33
2019-04-20T21:56:08.084Z,14.67
2019-04-20T21:58:44.385Z,14.77
2019-04-20T22:01:22.194Z,15.87
2019-04-20T22:03:45.069Z,17.07
2019-04-20T22:06:16.286Z,13.33
2019-04-20T22:08:54.578Z,13.60
2019-04-20T22:11:23.961Z,14.07
2019-04-20T22:13:54.841Z,14.17
2019-04-20T22:16:34.332Z,14.20
2019-04-20T22:19:14.598Z,13.33
2019-04-20T22:21:48.272Z,13.07
2019-04-20T22:24:13.593Z,11.13
2019-04-20T22:26:50.260Z,13.37
2019-04-20T22:29:08.047Z,13.57
2019-04-20T22:31:40.232Z,11.13
2019-04-20T22:34:15.359Z,13.03
2019-04-20T22:36:48.152Z,14.47
2019-04-20T22:39:18.709Z,12.00
2019-04-20T22:41:56.344Z,13.30
2019-04-20T22:44:26.600Z,13.53
2019-04-20T22:46:56.308Z,12.93
2019-04-20T22:49:47.254Z,18.37
2019-04-20T22:52:18.505Z,13.03
2019-04-20T22:54:48.955Z,17.20
2019-04-20T22:57:21.585Z,17.70
2019-04-20T22:59:50.512Z,13.60
2019-04-20T23:02:13.544Z,20.90
2019-04-20T23:04:48.700Z,19.03
2019-04-20T23:07:20.850Z,15.57
2019-04-20T23:09:54.976Z,19.17
2019-04-20T23:12:26.926Z,14.83
2019-04-20T23:14:56.588Z,15.57
2019-04-20T23:17:36.548Z,17.23
2019-04-20T23:20:02.910Z,15.57
2019-04-20T23:22:36.827Z,15.60
2019-04-20T23:25:05.385Z,18.00
2019-04-20T23:27:37.280Z,14.23
2019-04-20T23:30:20.240Z,13.87
2019-04-20T23:32:44.192Z,15.17
2019-04-20T23:35:18.500Z,16.73
2019-04-20T23:37:48.431Z,12.63
2019-04-20T23:40:19.633Z,13.30
2019-04-20T23:42:55.812Z,20.07
2019-04-20T23:45:42.726Z,16.63
2019-04-20T23:48:18.365Z,16.57
2019-04-20T23:51:05.029Z,16.40
2019-04-20T23:53:39.208Z,15.67
2019-04-20T23:55:54.398Z,16.63
2019-04-20T23:58:26.385Z,15.57
